EKKA

Karup Airport

Karup, Denmark
TAF EKKA 241104Z 2412/2512 31015KT 9999 SCT030 TEMPO 2412/2417 31020G34KT PROB40 2412/2415 5000 SHRA SCT020CB BECMG 2420/2423 31008KT BECMG 2503/2506 26008KT
Issued Valid From Valid To
Sep-24 @ 11:04 UTC
(3 hours ago)
Sep-24 @ 12:00 UTC
(2 hours ago)
Sep-25 @ 12:00 UTC
(in 22 hours)
Sep-24 @ 12:00 to Sep-24 @ 20:00
TAF EKKA 241104Z 2412/2512 31015KT 9999 SCT030
Wind Visibility Clouds
310° at 15 knots 10,000+ meters
  • Scattered at 3,000' AGL
Probable  (Probability 40%) Sep-24 @ 12:00 to Sep-24 @ 15:00
PROB40 2412/2415 5000 SHRA SCT020CB
Visibility Clouds Conditions
5,005 meters
  • Scattered at 2,000' AGL
  • Rain
Temporary Sep-24 @ 12:00 to Sep-24 @ 17:00
TEMPO 2412/2417 31020G34KT
Wind
310° at 20 knots
 Gusting to 34 knots
Becoming Sep-24 @ 20:00 to Sep-25 @ 03:00
BECMG 2420/2423 31008KT
Wind Visibility Clouds
310° at 8 knots 10,000+ meters
  • Scattered at 3,000' AGL
Becoming Sep-25 @ 03:00 to Sep-25 @ 12:00
BECMG 2503/2506 26008KT
Wind Visibility Clouds
260° at 8 knots 10,000+ meters
  • Scattered at 3,000' AGL
TAF EKKA 241104Z 2412/2512 31015KT 9999 SCT030 TEMPO 2412/2417 31020G34KT PROB40 2412/2415 5000 SHRA SCT020CB BECMG 2420/2423 31008KT BECMG 2503/2506 26008KT
Issued Sep-24 @ 11:04 UTC
(3 hours ago)
Valid From Sep-24 @ 12:00 UTC
(2 hours ago)
Valid To Sep-25 @ 12:00 UTC
(in 22 hours)
Sep-24 @ 12:00 - Sep-24 @ 20:00
Wind Visibility
310° at 15 knots 10,000+ meters
Clouds
  • Scattered at 3,000' AGL
Probability 40% Probable Sep-24 @ 12:00 - Sep-24 @ 15:00
Clouds
  • Scattered at 2,000' AGL
Conditions
  • Rain
Temporary Sep-24 @ 12:00 - Sep-24 @ 17:00
Wind
310° at 20 knots
 Gusting to 34 knots
Becoming Sep-24 @ 20:00 - Sep-25 @ 03:00
Wind Visibility
310° at 8 knots 10,000+ meters
Clouds
  • Scattered at 3,000' AGL
Becoming Sep-25 @ 03:00 - Sep-25 @ 12:00
Wind Visibility
260° at 8 knots 10,000+ meters
Clouds
  • Scattered at 3,000' AGL